Jrs Mira — V2FS4 — position and weather

sailwx.info

Track history (hours):
 
Tides and Currents Weather Stations Pressure Air Temp Water Temp Dewpoint Dewpoint Depression Visibility Wind Speed Wind Dir Waves Ship Positions

Jrs Mira

Last reported at 2016-Feb-07 05:09 UTC. Time now 2016-Feb-12 05:43 UTC.
Position N 50°30' W 000°01'.

Length 107 m; draft 8 m.

Type: Cargo ship. MMSI: 305780000.

Date/timePositionNaut miles runAvg speedWind from/ knotsBaromVisibWave heightAir tempDewpointWater temp
2016-Feb-07 05:09N 50°30' W 000°01'5 8.5
2016-Feb-07 04:33N 50°32' E 000°06'9 9.3
2016-Feb-07 03:33N 50°35' E 000°20'32 7.9
2016-Feb-06 23:28N 50°52' E 001°04'6 6.3
2016-Feb-06 22:33N 50°56' E 001°11'7 6.9
2016-Feb-06 21:33N 51°00' E 001°19'7 7.0
2016-Feb-06 20:33N 51°05' E 001°28'9 9.1
2016-Feb-06 19:33N 51°10' E 001°39'1110.9
2016-Feb-06 18:33N 51°19' E 001°50'1111.3
2016-Feb-06 17:33N 51°29' E 001°59'1110.6
2016-Feb-06 16:33N 51°37' E 002°10'88 9.5
2016-Feb-06 07:20N 52°45' E 003°40'910.9
2016-Feb-06 06:33N 52°51' E 003°49'1110.3
2016-Feb-06 05:29N 52°59' E 004°02'51 8.5
2016-Feb-05 23:33N 53°34' E 005°03'1110.8
2016-Feb-05 22:33N 53°38' E 005°20'1110.7
2016-Feb-05 21:33N 53°41' E 005°37'1110.6
2016-Feb-05 20:33N 53°45' E 005°54'1010.0
2016-Feb-05 19:33N 53°48' E 006°10'10 9.7
2016-Feb-05 18:33N 53°51' E 006°26'10 9.8
2016-Feb-05 17:33N 53°53' E 006°42'10 9.8
2016-Feb-05 16:33N 53°56' E 006°58'1010.3
2016-Feb-05 15:33N 53°58' E 007°15'1111.0
2016-Feb-05 14:33N 54°01' E 007°33'1211.5
2016-Feb-05 13:33N 54°02' E 007°53'1211.6
2016-Feb-05 12:33N 54°01' E 008°12'1312.7
2016-Feb-05 11:33N 53°58' E 008°34'1211.6
2016-Feb-05 10:33N 53°51' E 008°48'1010.0
2016-Feb-05 09:33N 53°53' E 009°05'2 2.4
2016-Feb-05 08:33N 53°54' E 009°09'5 4.8
2016-Feb-05 07:26N 53°58' E 009°15'25 4.3
2016-Feb-05 01:33N 54°18' E 009°41'7 7.2
2016-Feb-05 00:33N 54°22' E 009°51'7 7.1
2016-Feb-04 23:33N 54°22' E 010°04'2 2.3
2016-Feb-04 22:33N 54°22' E 010°07'1 1.3
2016-Feb-04 21:33N 54°22' E 010°10'9 9.1
2016-Feb-04 20:32N 54°30' E 010°18'1110.8
2016-Feb-04 19:33N 54°34' E 010°35'1110.8
2016-Feb-04 18:33N 54°35' E 010°53'1010.2
2016-Feb-04 17:33N 54°36' E 011°11'10 9.8
2016-Feb-04 16:33N 54°31' E 011°26'1010.4
2016-Feb-04 15:33N 54°27' E 011°42'1010.2
2016-Feb-04 14:33N 54°26' E 011°60'9 9.0
2016-Feb-04 13:33N 54°31' E 012°12'12 9.8
2016-Feb-04 12:20N 54°41' E 012°25'4210.9
2016-Feb-04 08:29N 54°57' E 013°33'1010.5
2016-Feb-04 07:33N 55°01' E 013°48'1010.0
2016-Feb-04 06:33N 55°04' E 014°05'1010.1
2016-Feb-04 05:33N 55°12' E 014°16'1110.6
2016-Feb-04 04:33N 55°21' E 014°27'1111.0
2016-Feb-04 03:33N 55°28' E 014°41'1111.2
2016-Feb-04 02:33N 55°34' E 014°59'1110.9
2016-Feb-04 01:33N 55°39' E 015°15'10910.9
2016-Feb-03 15:32N 57°03' E 017°22'1111.5
2016-Feb-03 14:33N 57°13' E 017°30'1211.8
2016-Feb-03 13:33N 57°24' E 017°38'  
2016-Jan-29 03:22N 59°34' E 021°15'8 9.4
2016-Jan-29 02:28N 59°33' E 021°31'9 9.4
2016-Jan-29 01:32N 59°32' E 021°48'39 7.1
2016-Jan-28 20:07N 59°35' E 023°04'3 5.9
2016-Jan-28 19:32N 59°36' E 023°11'6 6.4
2016-Jan-28 18:32N 59°38' E 023°23'7 7.3
2016-Jan-28 17:33N 59°40' E 023°37'9 8.6
2016-Jan-28 16:33N 59°42' E 023°53'30 7.3
2016-Jan-28 12:28N 59°35' E 024°50'0 0.0
2016-Jan-28 11:28N 59°35' E 024°50'0 0.0
2016-Jan-28 10:31N 59°35' E 024°50'0 0.0
2016-Jan-28 09:28N 59°35' E 024°50'0 0.0
2016-Jan-28 08:19N 59°35' E 024°50'0 0.0
2016-Jan-28 07:31N 59°35' E 024°50'1 1.1
2016-Jan-28 06:33N 59°36' E 024°50'  
Track history (hours):
 
Tides and Currents Weather Stations Pressure Air Temp Water Temp Dewpoint Dewpoint Depression Visibility Wind Speed Wind Dir Waves Ship Positions

Jrs Mira

Last reported at 2016-Feb-07 05:09 UTC. Time now 2016-Feb-12 05:43 UTC.
Position N 50°30' W 000°01'.

Length 107 m; draft 8 m.

Type: Cargo ship. MMSI: 305780000.

Date/timePositionNaut miles runAvg speedWind from/ knotsBaromVisibWave heightAir tempDewpointWater temp
2016-Feb-07 05:09N 50°30' W 000°01'5 8.5
2016-Feb-07 04:33N 50°32' E 000°06'9 9.3
2016-Feb-07 03:33N 50°35' E 000°20'32 7.9
2016-Feb-06 23:28N 50°52' E 001°04'6 6.3
2016-Feb-06 22:33N 50°56' E 001°11'7 6.9
2016-Feb-06 21:33N 51°00' E 001°19'7 7.0
2016-Feb-06 20:33N 51°05' E 001°28'9 9.1
2016-Feb-06 19:33N 51°10' E 001°39'1110.9
2016-Feb-06 18:33N 51°19' E 001°50'1111.3
2016-Feb-06 17:33N 51°29' E 001°59'1110.6
2016-Feb-06 16:33N 51°37' E 002°10'88 9.5
2016-Feb-06 07:20N 52°45' E 003°40'910.9
2016-Feb-06 06:33N 52°51' E 003°49'1110.3
2016-Feb-06 05:29N 52°59' E 004°02'51 8.5
2016-Feb-05 23:33N 53°34' E 005°03'1110.8
2016-Feb-05 22:33N 53°38' E 005°20'1110.7
2016-Feb-05 21:33N 53°41' E 005°37'1110.6
2016-Feb-05 20:33N 53°45' E 005°54'1010.0
2016-Feb-05 19:33N 53°48' E 006°10'10 9.7
2016-Feb-05 18:33N 53°51' E 006°26'10 9.8
2016-Feb-05 17:33N 53°53' E 006°42'10 9.8
2016-Feb-05 16:33N 53°56' E 006°58'1010.3
2016-Feb-05 15:33N 53°58' E 007°15'1111.0
2016-Feb-05 14:33N 54°01' E 007°33'1211.5
2016-Feb-05 13:33N 54°02' E 007°53'1211.6
2016-Feb-05 12:33N 54°01' E 008°12'1312.7
2016-Feb-05 11:33N 53°58' E 008°34'1211.6
2016-Feb-05 10:33N 53°51' E 008°48'1010.0
2016-Feb-05 09:33N 53°53' E 009°05'2 2.4
2016-Feb-05 08:33N 53°54' E 009°09'5 4.8
2016-Feb-05 07:26N 53°58' E 009°15'25 4.3
2016-Feb-05 01:33N 54°18' E 009°41'7 7.2
2016-Feb-05 00:33N 54°22' E 009°51'7 7.1
2016-Feb-04 23:33N 54°22' E 010°04'2 2.3
2016-Feb-04 22:33N 54°22' E 010°07'1 1.3
2016-Feb-04 21:33N 54°22' E 010°10'9 9.1
2016-Feb-04 20:32N 54°30' E 010°18'1110.8
2016-Feb-04 19:33N 54°34' E 010°35'1110.8
2016-Feb-04 18:33N 54°35' E 010°53'1010.2
2016-Feb-04 17:33N 54°36' E 011°11'10 9.8
2016-Feb-04 16:33N 54°31' E 011°26'1010.4
2016-Feb-04 15:33N 54°27' E 011°42'1010.2
2016-Feb-04 14:33N 54°26' E 011°60'9 9.0
2016-Feb-04 13:33N 54°31' E 012°12'12 9.8
2016-Feb-04 12:20N 54°41' E 012°25'4210.9
2016-Feb-04 08:29N 54°57' E 013°33'1010.5
2016-Feb-04 07:33N 55°01' E 013°48'1010.0
2016-Feb-04 06:33N 55°04' E 014°05'1010.1
2016-Feb-04 05:33N 55°12' E 014°16'1110.6
2016-Feb-04 04:33N 55°21' E 014°27'1111.0
2016-Feb-04 03:33N 55°28' E 014°41'1111.2
2016-Feb-04 02:33N 55°34' E 014°59'1110.9
2016-Feb-04 01:33N 55°39' E 015°15'10910.9
2016-Feb-03 15:32N 57°03' E 017°22'1111.5
2016-Feb-03 14:33N 57°13' E 017°30'1211.8
2016-Feb-03 13:33N 57°24' E 017°38'  
2016-Jan-29 03:22N 59°34' E 021°15'8 9.4
2016-Jan-29 02:28N 59°33' E 021°31'9 9.4
2016-Jan-29 01:32N 59°32' E 021°48'39 7.1
2016-Jan-28 20:07N 59°35' E 023°04'3 5.9
2016-Jan-28 19:32N 59°36' E 023°11'6 6.4
2016-Jan-28 18:32N 59°38' E 023°23'7 7.3
2016-Jan-28 17:33N 59°40' E 023°37'9 8.6
2016-Jan-28 16:33N 59°42' E 023°53'30 7.3
2016-Jan-28 12:28N 59°35' E 024°50'0 0.0
2016-Jan-28 11:28N 59°35' E 024°50'0 0.0
2016-Jan-28 10:31N 59°35' E 024°50'0 0.0
2016-Jan-28 09:28N 59°35' E 024°50'0 0.0
2016-Jan-28 08:19N 59°35' E 024°50'0 0.0
2016-Jan-28 07:31N 59°35' E 024°50'1 1.1
2016-Jan-28 06:33N 59°36' E 024°50'  

Dump ship's entire track history